createdAt,value
2019-05-25T00:00:07.960Z,100236.70
2019-05-25T00:02:40.006Z,100230.86
2019-05-25T00:05:13.750Z,100229.03
2019-05-25T00:07:46.292Z,100227.92
2019-05-25T00:10:18.981Z,100222.84
2019-05-25T00:12:51.659Z,100228.67
2019-05-25T00:15:23.933Z,100228.94
2019-05-25T00:17:56.193Z,100233.09
2019-05-25T00:20:29.095Z,100224.56
2019-05-25T00:23:01.353Z,100231.50
2019-05-25T00:25:33.920Z,100235.36
2019-05-25T00:28:06.397Z,100231.60
2019-05-25T00:30:38.668Z,100239.63
2019-05-25T00:33:11.145Z,100232.95
2019-05-25T00:35:43.729Z,100232.47
2019-05-25T00:38:16.299Z,100220.32
2019-05-25T00:40:49.078Z,100218.61
2019-05-25T00:43:21.659Z,100217.76
2019-05-25T00:45:54.234Z,100216.16
2019-05-25T00:48:26.297Z,100215.45
2019-05-25T00:50:58.772Z,100210.70
2019-05-25T00:53:31.146Z,100206.53
2019-05-25T00:56:03.728Z,100209.31
2019-05-25T00:58:36.302Z,100210.06
2019-05-25T01:01:08.905Z,100210.22
2019-05-25T01:03:41.356Z,100211.92
2019-05-25T01:06:14.035Z,100207.54
2019-05-25T01:08:46.612Z,100199.15
2019-05-25T01:11:19.049Z,100201.56
2019-05-25T01:13:52.022Z,100195.52
2019-05-25T01:16:24.541Z,100191.50
2019-05-25T01:18:57.118Z,100188.08
2019-05-25T01:21:29.588Z,100184.30
2019-05-25T01:24:01.758Z,100184.44
2019-05-25T01:26:34.337Z,100187.83
2019-05-25T01:29:06.502Z,100202.05
2019-05-25T01:31:39.287Z,100205.09
2019-05-25T01:34:11.469Z,100197.81
2019-05-25T01:36:44.033Z,100187.61
2019-05-25T01:39:16.029Z,100194.55
2019-05-25T01:41:48.571Z,100196.47
2019-05-25T01:44:21.038Z,100195.62
2019-05-25T01:46:53.821Z,100198.41
2019-05-25T01:49:25.912Z,100196.95
2019-05-25T01:51:58.256Z,100199.04
2019-05-25T01:54:30.631Z,100198.19
2019-05-25T01:57:03.170Z,100203.86
2019-05-25T01:59:35.575Z,100205.09
2019-05-25T02:02:08.367Z,100200.23
2019-05-25T02:04:40.530Z,100199.15
2019-05-25T02:07:12.904Z,100197.44
2019-05-25T02:09:45.278Z,100197.92
2019-05-25T02:12:17.748Z,100198.93
2019-05-25T02:14:50.324Z,100206.10
2019-05-25T02:17:22.491Z,100210.00
2019-05-25T02:19:54.761Z,100217.05
2019-05-25T02:22:27.236Z,100210.59
2019-05-25T02:25:14.495Z,100210.33
2019-05-25T02:27:33.619Z,100205.36
2019-05-25T02:30:07.427Z,100217.17
2019-05-25T02:32:39.794Z,100211.48
2019-05-25T02:35:15.247Z,100205.77
2019-05-25T02:37:47.920Z,100215.67
2019-05-25T02:40:20.292Z,100212.15
2019-05-25T02:42:52.563Z,100213.74
2019-05-25T02:45:24.838Z,100205.97
2019-05-25T02:47:57.104Z,100215.80
2019-05-25T02:50:29.370Z,100217.16
2019-05-25T02:53:01.745Z,100219.59
2019-05-25T02:55:35.098Z,100216.91
2019-05-25T02:58:07.034Z,100224.22
2019-05-25T03:00:39.171Z,100221.28
2019-05-25T03:03:11.847Z,100232.97
2019-05-25T03:05:44.136Z,100228.09
2019-05-25T03:08:16.998Z,100227.61
2019-05-25T03:10:49.377Z,100223.45
2019-05-25T03:13:22.986Z,100232.44
2019-05-25T03:15:56.110Z,100229.38
2019-05-25T03:18:28.638Z,100228.84
2019-05-25T03:21:01.005Z,100227.84
2019-05-25T03:23:33.382Z,100204.02
2019-05-25T03:26:05.751Z,100227.95
2019-05-25T03:28:38.125Z,100237.06
2019-05-25T03:31:10.501Z,100233.13
2019-05-25T03:33:42.872Z,100232.64
2019-05-25T03:36:15.135Z,100228.09
2019-05-25T03:38:47.817Z,100235.41
2019-05-25T03:41:21.224Z,100236.46
2019-05-25T03:43:53.745Z,100228.12
2019-05-25T03:46:25.972Z,100228.10
2019-05-25T03:48:58.390Z,100226.94
2019-05-25T03:51:30.607Z,100227.23
2019-05-25T03:54:03.722Z,100224.92
2019-05-25T03:56:35.773Z,100224.02
2019-05-25T03:59:08.131Z,100227.97
2019-05-25T04:01:40.501Z,100221.00
2019-05-25T04:04:13.393Z,100217.48
2019-05-25T04:06:45.869Z,100213.74
2019-05-25T04:09:18.441Z,100212.58
2019-05-25T04:11:50.514Z,100209.69
2019-05-25T04:14:23.191Z,100216.84
2019-05-25T04:16:56.582Z,100215.41
2019-05-25T04:19:28.849Z,100214.91
2019-05-25T04:22:01.028Z,100220.00
2019-05-25T04:24:33.827Z,100223.23
2019-05-25T04:27:08.437Z,100230.50
2019-05-25T04:29:40.697Z,100227.59
2019-05-25T04:32:13.282Z,100229.39
2019-05-25T04:34:45.642Z,100227.20
2019-05-25T04:37:18.114Z,100226.52
2019-05-25T04:39:50.513Z,100227.84
2019-05-25T04:42:22.865Z,100240.10
2019-05-25T04:44:55.665Z,100242.97
2019-05-25T04:47:28.009Z,100240.81
2019-05-25T04:50:00.384Z,100241.52
2019-05-25T04:52:33.121Z,100229.70
2019-05-25T04:55:06.388Z,100233.33
2019-05-25T04:57:38.629Z,100238.93
2019-05-25T05:00:11.531Z,100249.03
2019-05-25T05:02:43.886Z,100245.45
2019-05-25T05:05:16.559Z,100246.30
2019-05-25T05:07:49.138Z,100244.66
2019-05-25T05:10:21.826Z,100244.40
2019-05-25T05:12:55.931Z,100247.55
2019-05-25T05:15:28.834Z,100247.64
2019-05-25T05:18:01.291Z,100256.81
2019-05-25T05:20:33.870Z,100256.75
2019-05-25T05:23:06.152Z,100261.47
2019-05-25T05:25:38.728Z,100251.68
2019-05-25T05:28:11.635Z,100248.89
2019-05-25T05:30:43.694Z,100257.56
2019-05-25T05:33:16.168Z,100258.48
2019-05-25T05:35:48.719Z,100256.79
2019-05-25T05:38:21.011Z,100253.14
2019-05-25T05:40:53.874Z,100255.10
2019-05-25T05:43:25.932Z,100252.12
2019-05-25T05:45:59.244Z,100255.04
2019-05-25T05:48:31.505Z,100254.19
2019-05-25T05:51:04.083Z,100251.22
2019-05-25T05:53:36.918Z,100251.42
2019-05-25T05:56:09.327Z,100259.23
2019-05-25T05:58:41.711Z,100257.78
2019-05-25T06:01:14.483Z,100262.55
2019-05-25T06:03:46.979Z,100271.28
2019-05-25T06:06:19.446Z,100276.98
2019-05-25T06:08:52.127Z,100274.42
2019-05-25T06:11:25.112Z,100267.45
2019-05-25T06:13:57.471Z,100264.53
2019-05-25T06:16:30.356Z,100264.92
2019-05-25T06:19:03.343Z,100265.62
2019-05-25T06:21:35.714Z,100257.45
2019-05-25T06:24:07.984Z,100258.19
2019-05-25T06:26:40.661Z,100255.48
2019-05-25T06:29:13.101Z,100248.28
2019-05-25T06:31:45.924Z,100253.75
2019-05-25T06:34:18.384Z,100243.79
2019-05-25T06:36:50.981Z,100242.81
2019-05-25T06:39:23.542Z,100240.77
2019-05-25T06:41:55.914Z,100242.17
2019-05-25T06:44:28.515Z,100244.69
2019-05-25T06:47:01.280Z,100241.04
2019-05-25T06:49:33.649Z,100237.70
2019-05-25T06:52:06.220Z,100231.56
2019-05-25T06:54:39.004Z,100223.43
2019-05-25T06:57:11.384Z,100227.16
2019-05-25T06:59:43.545Z,100233.47
2019-05-25T07:02:16.234Z,100224.67
2019-05-25T07:04:48.598Z,100226.64
2019-05-25T07:07:21.074Z,100222.45
2019-05-25T07:09:53.646Z,100222.09
2019-05-25T07:12:26.277Z,100218.86
2019-05-25T07:14:59.615Z,100220.31
2019-05-25T07:17:32.086Z,100211.73
2019-05-25T07:20:06.520Z,100213.16
2019-05-25T07:22:38.882Z,100209.13
2019-05-25T07:25:10.772Z,100210.12
2019-05-25T07:27:57.868Z,100210.37
2019-05-25T07:30:16.932Z,100207.56
2019-05-25T07:32:49.395Z,100207.00
2019-05-25T07:35:21.976Z,100206.89
2019-05-25T07:37:54.553Z,100211.95
2019-05-25T07:40:26.932Z,100208.16
2019-05-25T07:42:59.496Z,100209.23
2019-05-25T07:45:31.772Z,100203.30
2019-05-25T07:48:04.252Z,100204.62
2019-05-25T07:50:36.539Z,100199.00
2019-05-25T07:53:08.894Z,100203.46
2019-05-25T07:55:41.076Z,100211.70
2019-05-25T07:58:18.152Z,100209.91
2019-05-25T08:00:47.447Z,100214.95
2019-05-25T08:03:20.210Z,100214.09
2019-05-25T08:05:52.587Z,100217.30
2019-05-25T08:08:25.165Z,100213.37
2019-05-25T08:10:57.497Z,100212.77
2019-05-25T08:13:29.636Z,100208.86
2019-05-25T08:16:01.572Z,100202.86
2019-05-25T08:18:34.046Z,100204.02
2019-05-25T08:21:06.929Z,100201.70
2019-05-25T08:23:39.601Z,100204.73
2019-05-25T08:26:11.878Z,100201.88
2019-05-25T08:28:44.269Z,100197.72
2019-05-25T08:31:16.820Z,100190.36
2019-05-25T08:33:49.611Z,100184.03
2019-05-25T08:36:21.964Z,100190.22
2019-05-25T08:38:55.371Z,100194.19
2019-05-25T08:41:27.876Z,100206.06
2019-05-25T08:44:04.165Z,100188.04
2019-05-25T08:46:34.239Z,100187.59
2019-05-25T08:49:06.924Z,100213.16
2019-05-25T08:51:39.289Z,100213.16
2019-05-25T08:54:11.862Z,100202.30
2019-05-25T08:56:44.546Z,100196.70
2019-05-25T08:59:16.911Z,100189.58
2019-05-25T09:01:49.663Z,100182.51
2019-05-25T09:04:25.501Z,100177.90
2019-05-25T09:06:56.254Z,100158.02
2019-05-25T09:09:29.169Z,100155.74
2019-05-25T09:12:02.461Z,100158.28
2019-05-25T09:14:35.250Z,100152.19
2019-05-25T09:17:07.929Z,100156.27
2019-05-25T09:19:40.498Z,100160.99
2019-05-25T09:22:13.070Z,100160.13
2019-05-25T09:24:45.494Z,100154.65
2019-05-25T09:27:20.889Z,100162.44
2019-05-25T09:29:53.174Z,100161.01
2019-05-25T09:32:25.450Z,100153.05
2019-05-25T09:34:58.024Z,100145.92
2019-05-25T09:37:30.902Z,100137.36
2019-05-25T09:40:03.370Z,100135.53
2019-05-25T09:42:36.010Z,100136.61
2019-05-25T09:45:08.535Z,100127.04
2019-05-25T09:47:41.285Z,100123.81
2019-05-25T09:50:14.378Z,100119.99
2019-05-25T09:52:46.789Z,100122.82
2019-05-25T09:55:19.534Z,100121.75
2019-05-25T09:57:51.614Z,100117.30
2019-05-25T10:00:24.279Z,100120.25
2019-05-25T10:02:56.659Z,100119.49
2019-05-25T10:05:28.925Z,100124.79
2019-05-25T10:08:01.530Z,100125.15
2019-05-25T10:10:34.091Z,100122.41
2019-05-25T10:13:08.101Z,100121.42
2019-05-25T10:15:40.568Z,100118.92
2019-05-25T10:18:13.145Z,100123.86
2019-05-25T10:20:45.825Z,100128.47
2019-05-25T10:23:18.915Z,100130.16
2019-05-25T10:25:51.600Z,100139.08
2019-05-25T10:28:23.987Z,100175.36
2019-05-25T10:30:56.549Z,100203.81
2019-05-25T10:33:28.820Z,100212.76
2019-05-25T11:45:05.116Z,100184.36
2019-05-25T11:47:37.533Z,100183.25
2019-05-25T11:50:09.918Z,100183.98
2019-05-25T11:52:42.250Z,100181.94
2019-05-25T11:55:15.995Z,100184.36
2019-05-25T11:57:48.243Z,100188.94
2019-05-25T12:00:25.694Z,100186.24
2019-05-25T12:02:54.917Z,100186.72
2019-05-25T12:05:27.527Z,100180.50
2019-05-25T12:07:59.803Z,100178.83
2019-05-25T12:10:32.173Z,100175.38
2019-05-25T12:13:06.141Z,100171.73
2019-05-25T12:15:38.561Z,100174.81
2019-05-25T12:18:12.232Z,100176.89
2019-05-25T12:20:44.750Z,100166.12
2019-05-25T12:23:17.025Z,100155.34
2019-05-25T12:25:49.519Z,100163.84
2019-05-25T12:28:21.952Z,100162.00
2019-05-25T12:30:54.333Z,100166.02
2019-05-25T12:33:26.448Z,100161.95
2019-05-25T12:35:59.104Z,100160.16
2019-05-25T12:38:31.329Z,100153.41
2019-05-25T12:41:03.911Z,100156.78
2019-05-25T12:43:37.099Z,100155.05
2019-05-25T12:46:09.703Z,100152.25
2019-05-25T12:48:42.162Z,100137.84
2019-05-25T12:51:17.608Z,100140.62
2019-05-25T12:53:49.179Z,100136.84
2019-05-25T12:56:21.637Z,100128.73
2019-05-25T12:58:53.782Z,100113.97
2019-05-25T13:01:26.376Z,100106.23
2019-05-25T13:03:58.631Z,100096.88
2019-05-25T13:06:31.117Z,100094.87
2019-05-25T13:09:04.328Z,100088.44
2019-05-25T13:11:36.577Z,100086.09
2019-05-25T13:14:14.535Z,100086.14
2019-05-25T13:16:43.887Z,100081.03
2019-05-25T13:19:16.052Z,100080.19
2019-05-25T13:21:48.622Z,100084.67
2019-05-25T13:24:20.590Z,100084.72
2019-05-25T13:26:53.067Z,100085.72
2019-05-25T13:29:25.327Z,100082.55
2019-05-25T13:31:57.804Z,100079.12
2019-05-25T13:34:31.719Z,100084.13
2019-05-25T13:37:04.644Z,100082.62
2019-05-25T13:39:36.738Z,100077.87
2019-05-25T13:42:09.173Z,100079.12
2019-05-25T13:44:41.118Z,100084.44
2019-05-25T13:47:13.473Z,100074.48
2019-05-25T13:49:46.149Z,100073.98
2019-05-25T13:52:18.718Z,100067.27
2019-05-25T13:54:51.019Z,100063.92
2019-05-25T13:57:23.262Z,100063.23
2019-05-25T13:59:55.533Z,100066.67
2019-05-25T14:02:28.107Z,100062.92
2019-05-25T14:05:00.466Z,100058.30
2019-05-25T14:07:33.050Z,100055.21
2019-05-25T14:10:07.237Z,100053.41
2019-05-25T14:12:39.433Z,100040.72
2019-05-25T14:15:12.180Z,100047.84
2019-05-25T14:17:45.105Z,100053.20
2019-05-25T14:20:17.481Z,100054.53
2019-05-25T14:22:50.051Z,100060.64
2019-05-25T14:25:22.267Z,100059.99
2019-05-25T14:27:54.522Z,100059.67
2019-05-25T14:30:26.834Z,100049.03
2019-05-25T14:33:00.157Z,100046.97
2019-05-25T14:35:32.237Z,100048.77
2019-05-25T14:38:05.019Z,100041.26
2019-05-25T14:40:37.270Z,100046.24
2019-05-25T14:43:10.425Z,100045.75
2019-05-25T14:45:43.203Z,100047.67
2019-05-25T14:48:15.759Z,100043.94
2019-05-25T14:50:48.402Z,100051.03
2019-05-25T14:53:20.771Z,100047.91
2019-05-25T14:55:52.841Z,100055.30
2019-05-25T14:58:25.720Z,100052.30
2019-05-25T15:00:57.799Z,100061.75
2019-05-25T15:03:31.187Z,100060.28
2019-05-25T15:06:03.253Z,100062.84
2019-05-25T15:08:35.818Z,100060.52
2019-05-25T15:11:07.893Z,100059.48
2019-05-25T15:13:40.899Z,100056.44
2019-05-25T15:16:13.261Z,100060.14
2019-05-25T15:18:45.791Z,100062.53
2019-05-25T15:21:18.640Z,100062.72
2019-05-25T15:23:51.288Z,100062.95
2019-05-25T15:26:24.012Z,100070.39
2019-05-25T15:28:58.172Z,100070.80
2019-05-25T15:31:30.976Z,100078.78
2019-05-25T15:34:03.889Z,100077.34
2019-05-25T15:36:36.803Z,100068.37
2019-05-25T15:39:12.446Z,100075.14
2019-05-25T15:41:45.721Z,100073.59
2019-05-25T15:44:19.626Z,100080.67
2019-05-25T15:46:52.429Z,100081.16
2019-05-25T15:49:33.392Z,100082.59
2019-05-25T15:52:01.192Z,100074.83
2019-05-25T15:54:34.656Z,100082.13
2019-05-25T15:57:07.775Z,100079.33
2019-05-25T15:59:40.581Z,100077.02
2019-05-25T16:02:13.048Z,100077.62
2019-05-25T16:04:47.485Z,100071.03
2019-05-25T16:07:19.892Z,100074.10
2019-05-25T16:09:52.817Z,100069.03
2019-05-25T16:12:25.245Z,100074.41
2019-05-25T16:14:58.286Z,100072.58
2019-05-25T16:17:31.606Z,100076.54
2019-05-25T16:20:04.380Z,100076.13
2019-05-25T16:22:37.075Z,100082.27
2019-05-25T16:25:09.711Z,100083.14
2019-05-25T16:27:41.983Z,100078.72
2019-05-25T16:30:14.674Z,100073.00
2019-05-25T16:33:10.927Z,100075.14
2019-05-25T16:35:21.351Z,100070.03
2019-05-25T16:37:53.772Z,100077.70
2019-05-25T16:40:26.732Z,100075.77
2019-05-25T16:42:59.181Z,100075.86
2019-05-25T16:45:32.091Z,100074.22
2019-05-25T16:48:04.248Z,100070.52
2019-05-25T16:50:37.645Z,100069.64
2019-05-25T16:53:09.680Z,100073.34
2019-05-25T16:55:42.485Z,100065.38
2019-05-25T16:58:14.799Z,100063.70
2019-05-25T17:00:47.645Z,100072.49
2019-05-25T17:03:28.159Z,100071.69
2019-05-25T17:05:57.319Z,100071.50
2019-05-25T17:08:29.808Z,100077.87
2019-05-25T17:11:03.691Z,100071.06
2019-05-25T17:13:36.098Z,100065.62
2019-05-25T17:16:08.832Z,100072.81
2019-05-25T17:18:41.414Z,100071.47
2019-05-25T17:21:14.179Z,100063.97
2019-05-25T17:23:46.981Z,100065.38
2019-05-25T17:26:19.547Z,100071.36
2019-05-25T17:28:52.186Z,100076.38
2019-05-25T17:31:24.950Z,100076.41
2019-05-25T17:33:57.412Z,100080.22
2019-05-25T17:36:30.030Z,100076.83
2019-05-25T17:39:02.653Z,100073.93
2019-05-25T17:41:38.207Z,100068.60
2019-05-25T17:44:10.568Z,100066.80
2019-05-25T17:46:43.248Z,100076.30
2019-05-25T17:49:15.940Z,100083.36
2019-05-25T17:51:48.607Z,100086.77
2019-05-25T17:54:20.963Z,100084.22
2019-05-25T17:56:54.304Z,100098.09
2019-05-25T17:59:26.639Z,100098.78
2019-05-25T18:01:59.213Z,100098.20
2019-05-25T18:04:31.476Z,100097.20
2019-05-25T18:07:04.310Z,100095.38
2019-05-25T18:09:36.643Z,100096.12
2019-05-25T18:12:09.552Z,100098.30
2019-05-25T18:14:41.801Z,100099.41
2019-05-25T18:17:14.686Z,100104.61
2019-05-25T18:19:47.163Z,100113.71
2019-05-25T18:22:19.634Z,100110.30
2019-05-25T18:24:52.321Z,100111.48
2019-05-25T18:27:25.216Z,100111.86
2019-05-25T18:29:57.665Z,100107.48
2019-05-25T18:32:30.137Z,100117.80
2019-05-25T18:35:02.510Z,100111.86
2019-05-25T18:37:35.355Z,100120.47
2019-05-25T18:40:07.664Z,100118.06
2019-05-25T18:42:40.346Z,100115.64
2019-05-25T18:45:12.630Z,100120.13
2019-05-25T18:47:45.383Z,100115.53
2019-05-25T18:50:17.962Z,100117.20
2019-05-25T18:52:50.773Z,100119.88
2019-05-25T18:55:23.219Z,100108.97
2019-05-25T18:57:55.901Z,100114.64
2019-05-25T19:00:28.172Z,100114.53
2019-05-25T19:03:00.689Z,100109.66
2019-05-25T19:05:33.323Z,100113.16
2019-05-25T19:08:05.811Z,100116.56
2019-05-25T19:10:38.271Z,100105.28
2019-05-25T19:13:11.062Z,100104.66
2019-05-25T19:15:45.067Z,100110.63
2019-05-25T19:18:17.550Z,100111.96
2019-05-25T19:20:50.121Z,100107.44
2019-05-25T19:23:22.598Z,100106.10
2019-05-25T19:25:54.886Z,100110.00
2019-05-25T19:28:27.446Z,100104.33
2019-05-25T19:30:59.971Z,100100.31
2019-05-25T19:33:32.482Z,100101.55
2019-05-25T19:36:04.865Z,100102.28
2019-05-25T19:38:37.650Z,100099.83
2019-05-25T19:41:10.039Z,100100.34
2019-05-25T19:43:42.699Z,100100.72
2019-05-25T19:46:15.313Z,100100.95
2019-05-25T19:48:49.578Z,100091.59
2019-05-25T19:51:23.513Z,100094.48
2019-05-25T19:53:56.406Z,100095.83
2019-05-25T19:56:28.854Z,100097.42
2019-05-25T19:59:01.648Z,100093.41
2019-05-25T20:01:33.909Z,100093.30
2019-05-25T20:04:06.479Z,100098.02
2019-05-25T20:06:38.953Z,100037.22
2019-05-25T20:09:11.540Z,100097.05
2019-05-25T20:11:44.214Z,100099.95
2019-05-25T20:14:16.895Z,100100.80
2019-05-25T20:16:49.467Z,100089.00
2019-05-25T20:19:22.359Z,100097.12
2019-05-25T20:21:54.727Z,100097.45
2019-05-25T20:24:27.209Z,100098.88
2019-05-25T20:27:01.712Z,100101.06
2019-05-25T20:29:33.990Z,100103.24
2019-05-25T20:32:06.263Z,100099.91
2019-05-25T20:34:38.842Z,100098.30
2019-05-25T20:37:11.429Z,100099.04
2019-05-25T20:39:44.101Z,100091.02
2019-05-25T20:42:16.576Z,100097.27
2019-05-25T20:44:49.352Z,100096.08
2019-05-25T20:47:21.721Z,100097.03
2019-05-25T20:49:53.991Z,100098.37
2019-05-25T20:52:26.568Z,100101.41
2019-05-25T20:54:59.286Z,100102.75
2019-05-25T20:57:32.127Z,100103.84
2019-05-25T21:00:05.797Z,100103.73
2019-05-25T21:02:39.884Z,100100.58
2019-05-25T21:05:12.325Z,100106.28
2019-05-25T21:07:44.690Z,100103.84
2019-05-25T21:10:17.192Z,100101.45
2019-05-25T21:12:49.542Z,100102.19
2019-05-25T21:15:22.327Z,100101.45
2019-05-25T21:17:54.692Z,100105.45
2019-05-25T21:20:27.060Z,100107.53
2019-05-25T21:22:59.233Z,100111.80
2019-05-25T21:25:32.423Z,100109.95
2019-05-25T21:28:05.431Z,100110.57
2019-05-25T21:30:38.084Z,100109.14
2019-05-25T21:33:10.362Z,100105.36
2019-05-25T21:35:42.625Z,100099.05
2019-05-25T21:38:14.687Z,100094.56
2019-05-25T21:40:47.368Z,100094.67
2019-05-25T21:43:19.800Z,100096.86
2019-05-25T21:45:52.217Z,100100.98
2019-05-25T21:48:24.480Z,100101.23
2019-05-25T21:50:56.957Z,100105.83
2019-05-25T21:53:29.437Z,100097.92
2019-05-25T21:56:02.213Z,100099.73
2019-05-25T21:58:34.591Z,100105.08
2019-05-25T22:01:07.709Z,100100.95
2019-05-25T22:03:39.538Z,100102.50
2019-05-25T22:06:24.037Z,100103.71
2019-05-25T22:08:45.930Z,100106.86
2019-05-25T22:11:18.471Z,100107.18
2019-05-25T22:13:51.185Z,100102.30
2019-05-25T22:16:23.456Z,100112.98
2019-05-25T22:18:55.928Z,100106.66
2019-05-25T22:21:28.403Z,100101.54
2019-05-25T22:24:03.738Z,100110.48
2019-05-25T22:26:38.417Z,100106.31
2019-05-25T22:29:10.844Z,100104.85
2019-05-25T22:31:43.336Z,100110.40
2019-05-25T22:34:15.687Z,100104.94
2019-05-25T22:36:48.363Z,100104.66
2019-05-25T22:39:20.731Z,100101.34
2019-05-25T22:41:53.314Z,100097.11
2019-05-25T22:44:25.567Z,100100.73
2019-05-25T22:46:58.162Z,100101.42
2019-05-25T22:49:30.931Z,100103.38
2019-05-25T22:52:03.817Z,100100.92
2019-05-25T22:54:37.313Z,100101.02
2019-05-25T22:57:09.592Z,100100.27
2019-05-25T22:59:42.298Z,100094.91
2019-05-25T23:02:14.640Z,100094.77
2019-05-25T23:04:48.446Z,100091.73
2019-05-25T23:07:20.974Z,100088.11
2019-05-25T23:09:53.289Z,100091.83
2019-05-25T23:12:25.971Z,100087.83
2019-05-25T23:14:58.137Z,100086.60
2019-05-25T23:17:30.508Z,100088.92
2019-05-25T23:20:02.575Z,100090.84
2019-05-25T23:22:35.259Z,100085.85
2019-05-25T23:25:07.524Z,100081.58
2019-05-25T23:27:39.791Z,100085.34
2019-05-25T23:30:12.371Z,100086.06
2019-05-25T23:32:44.643Z,100086.91
2019-05-25T23:35:17.659Z,100086.91
2019-05-25T23:37:49.996Z,100078.54
2019-05-25T23:40:22.066Z,100084.11
2019-05-25T23:42:54.636Z,100079.94
2019-05-25T23:45:26.707Z,100080.55
2019-05-25T23:47:59.282Z,100083.04
2019-05-25T23:50:31.646Z,100078.29
2019-05-25T23:53:04.130Z,100083.62
2019-05-25T23:55:36.494Z,100080.75
2019-05-25T23:58:08.980Z,100074.67
